KYKN/YKN METAR and TAF weather

Enter ICAO airport designator
Station Type Date Time Source
KYKN METAR 2021/02/25 15:56 UTC NOAA

KYKN 251556Z AUTO 26007KT 10SM CLR 01/M03 A3039 RMK AO2 SLP317 T00061033 FZRANO


Station Type Date Time Source
KYKN Decoded METAR 2021/02/25 15:56 UTC NOAA

Yankton, Chan Gurney Municipal Airport, SD, United States (KYKN) 42-55N 097-23W
Feb 25, 2021 - 10:56 AM EST / 2021.02.25 1556 UTC
Wind: from the W (260 degrees) at 8 MPH (7 KT):0
Visibility: 10 mile(s):0
Sky conditions: clear
Temperature: 33.1 F (0.6 C)
Windchill: 26 F (-3 C):1
Dew Point: 26.1 F (-3.3 C)
Relative Humidity: 75%
Pressure (altimeter): 30.39 in. Hg (1029 hPa)
ob: KYKN 251556Z AUTO 26007KT 10SM CLR 01/M03 A3039 RMK AO2 SLP317 T00061033 FZRANO
cycle: 16

Station Type Date Time Source
KYKN TAF UTC NOAA

Error!

Example: see airport list